createdAt,value
2019-02-27T00:01:25.523Z,1.70
2019-02-27T00:03:55.171Z,1.60
2019-02-27T00:06:24.890Z,1.60
2019-02-27T00:08:54.624Z,1.60
2019-02-27T00:11:24.307Z,1.60
2019-02-27T00:13:57.652Z,2.00
2019-02-27T00:16:25.390Z,1.90
2019-02-27T00:18:58.584Z,1.90
2019-02-27T00:21:26.398Z,1.80
2019-02-27T00:23:56.956Z,1.80
2019-02-27T00:26:27.136Z,1.80
2019-02-27T00:28:56.857Z,2.00
2019-02-27T00:31:26.546Z,2.10
2019-02-27T00:33:59.521Z,2.10
2019-02-27T00:36:28.709Z,2.10
2019-02-27T00:38:58.574Z,1.90
2019-02-27T00:41:28.232Z,1.70
2019-02-27T00:44:01.067Z,1.60
2019-02-27T00:46:29.284Z,1.50
2019-02-27T00:48:59.305Z,1.40
2019-02-27T00:51:29.525Z,1.40
2019-02-27T00:53:59.182Z,1.50
2019-02-27T00:56:28.834Z,1.50
2019-02-27T00:59:00.142Z,1.40
2019-02-27T01:01:29.832Z,1.40
2019-02-27T01:04:02.324Z,1.30
2019-02-27T01:06:30.792Z,1.40
2019-02-27T01:09:00.422Z,1.40
2019-02-27T01:11:30.065Z,1.40
2019-02-27T01:14:03.729Z,1.40
2019-02-27T01:16:31.130Z,1.30
2019-02-27T01:19:02.257Z,1.20
2019-02-27T01:21:32.075Z,1.20
2019-02-27T01:24:01.746Z,1.10
2019-02-27T01:26:31.575Z,1.10
2019-02-27T01:29:01.305Z,1.10
2019-02-27T01:31:30.958Z,1.00
2019-02-27T01:34:00.622Z,1.00
2019-02-27T01:36:30.234Z,1.10
2019-02-27T01:38:59.919Z,1.10
2019-02-27T01:41:29.608Z,1.00
2019-02-27T01:43:59.264Z,0.90
2019-02-27T01:46:28.887Z,0.80
2019-02-27T01:48:58.556Z,0.80
2019-02-27T01:51:28.891Z,1.00
2019-02-27T01:53:58.643Z,1.20
2019-02-27T01:56:29.095Z,1.30
2019-02-27T01:58:59.414Z,1.20
2019-02-27T02:01:30.221Z,1.00
2019-02-27T02:04:00.511Z,0.80
2019-02-27T02:06:32.330Z,0.90
2019-02-27T02:09:32.132Z,1.00
2019-02-27T02:12:07.685Z,1.10
2019-02-27T02:15:01.544Z,1.10
2019-02-27T02:18:05.039Z,1.10
2019-02-27T02:20:53.549Z,0.90
2019-02-27T02:24:12.174Z,0.90
2019-02-27T02:26:59.206Z,0.80
2019-02-27T02:30:10.466Z,0.80
2019-02-27T02:33:11.736Z,0.80
2019-02-27T02:36:04.450Z,1.00
2019-02-27T02:39:19.162Z,0.80
2019-02-27T02:42:01.435Z,0.70
2019-02-27T02:44:59.107Z,0.90
2019-02-27T02:47:55.401Z,1.00
2019-02-27T02:50:37.599Z,1.00
2019-02-27T02:53:25.401Z,0.90
2019-02-27T02:56:10.864Z,0.80
2019-02-27T02:58:54.222Z,0.80
2019-02-27T03:01:49.168Z,0.80
2019-02-27T03:05:07.470Z,0.70
2019-02-27T03:08:01.090Z,0.50
2019-02-27T03:10:42.815Z,0.40
2019-02-27T03:13:27.670Z,0.30
2019-02-27T03:16:12.016Z,0.50
2019-02-27T03:18:56.822Z,0.60
2019-02-27T03:21:48.740Z,0.60
2019-02-27T03:24:35.046Z,0.40
2019-02-27T03:27:16.973Z,0.40
2019-02-27T03:30:16.368Z,0.40
2019-02-27T03:33:06.656Z,0.30
2019-02-27T03:36:11.132Z,0.30
2019-02-27T03:38:50.689Z,0.20
2019-02-27T03:41:59.731Z,0.20
2019-02-27T03:44:57.256Z,0.20
2019-02-27T03:47:32.656Z,0.20
2019-02-27T03:50:27.931Z,0.30
2019-02-27T03:53:26.009Z,0.20
2019-02-27T03:56:16.141Z,0.20
2019-02-27T03:59:11.952Z,0.10
2019-02-27T04:02:35.111Z,0.10
2019-02-27T04:05:27.547Z,0.10
2019-02-27T04:08:25.434Z,0.00
2019-02-27T04:10:55.132Z,0.00
2019-02-27T04:13:27.763Z,0.00
2019-02-27T04:15:56.219Z,0.00
2019-02-27T04:18:27.504Z,0.10
2019-02-27T04:20:56.815Z,0.20
2019-02-27T04:23:26.443Z,0.20
2019-02-27T04:25:56.044Z,0.20
2019-02-27T04:28:29.620Z,0.20
2019-02-27T04:30:58.078Z,0.20
2019-02-27T04:33:27.904Z,0.10
2019-02-27T04:35:57.546Z,0.10
2019-02-27T04:38:27.599Z,0.10
2019-02-27T04:40:57.900Z,0.30
2019-02-27T04:43:31.998Z,0.40
2019-02-27T04:45:58.949Z,0.40
2019-02-27T04:48:29.918Z,0.50
2019-02-27T04:50:59.930Z,0.50
2019-02-27T04:53:32.009Z,0.50
2019-02-27T04:56:01.010Z,0.40
2019-02-27T04:58:31.339Z,0.50
2019-02-27T05:01:01.207Z,0.40
2019-02-27T05:03:30.966Z,0.40
2019-02-27T05:06:00.681Z,0.40
2019-02-27T05:08:30.362Z,0.40
2019-02-27T05:11:00.102Z,0.40
2019-02-27T05:13:29.806Z,0.30
2019-02-27T05:15:59.445Z,0.30
2019-02-27T05:18:29.994Z,0.20
2019-02-27T05:20:59.961Z,0.00
2019-02-27T05:23:30.871Z,0.10
2019-02-27T05:26:01.076Z,0.30
2019-02-27T05:28:32.085Z,0.40
2019-02-27T05:31:02.142Z,0.30
2019-02-27T05:33:35.857Z,0.30
2019-02-27T05:36:03.165Z,0.20
2019-02-27T05:38:32.798Z,0.30
2019-02-27T05:41:02.504Z,0.30
2019-02-27T05:43:32.199Z,0.40
2019-02-27T05:46:03.167Z,0.40
2019-02-27T05:48:33.158Z,0.40
2019-02-27T05:51:04.948Z,0.40
2019-02-27T05:53:34.206Z,0.50
2019-02-27T05:56:03.928Z,0.40
2019-02-27T05:58:33.622Z,0.30
2019-02-27T06:01:04.914Z,0.40
2019-02-27T06:03:35.572Z,0.30
2019-02-27T06:06:06.680Z,0.40
2019-02-27T06:08:38.084Z,0.30
2019-02-27T06:11:08.975Z,0.20
2019-02-27T06:13:38.674Z,0.10
2019-02-27T06:16:09.292Z,0.10
2019-02-27T06:18:39.155Z,0.30
2019-02-27T06:21:08.767Z,0.40
2019-02-27T06:23:38.590Z,0.50
2019-02-27T06:26:08.348Z,0.50
2019-02-27T06:28:37.977Z,0.30
2019-02-27T06:31:07.626Z,0.30
2019-02-27T06:33:38.319Z,0.50
2019-02-27T06:36:08.595Z,0.60
2019-02-27T06:38:39.471Z,0.70
2019-02-27T06:41:09.152Z,0.80
2019-02-27T06:43:38.803Z,0.90
2019-02-27T06:46:09.565Z,0.90
2019-02-27T06:48:43.124Z,0.90
2019-02-27T06:51:10.588Z,0.90
2019-02-27T06:53:40.233Z,1.00
2019-02-27T06:56:10.045Z,1.10
2019-02-27T06:58:39.767Z,1.00
2019-02-27T07:01:10.554Z,1.00
2019-02-27T07:03:40.912Z,1.00
2019-02-27T07:06:10.600Z,1.00
2019-02-27T07:08:40.459Z,1.00
2019-02-27T07:11:11.118Z,1.20
2019-02-27T07:13:41.030Z,1.30
2019-02-27T07:16:10.747Z,1.40
2019-02-27T07:18:41.868Z,1.30
2019-02-27T07:21:11.751Z,1.30
2019-02-27T07:23:41.396Z,1.60
2019-02-27T07:26:13.267Z,1.70
2019-02-27T07:28:43.627Z,1.70
2019-02-27T07:31:17.542Z,1.80
2019-02-27T07:33:45.190Z,2.00
2019-02-27T07:36:14.886Z,2.20
2019-02-27T07:38:44.494Z,2.40
2019-02-27T07:41:17.513Z,2.30
2019-02-27T07:43:45.527Z,2.40
2019-02-27T07:46:15.186Z,2.50
2019-02-27T07:48:44.835Z,2.70
2019-02-27T07:51:14.471Z,2.60
2019-02-27T07:53:44.111Z,2.70
2019-02-27T07:56:13.762Z,2.60
2019-02-27T07:58:43.428Z,2.70
2019-02-27T08:01:13.102Z,3.00
2019-02-27T08:03:45.107Z,3.00
2019-02-27T08:06:14.071Z,3.00
2019-02-27T08:08:43.723Z,3.10
2019-02-27T08:11:14.158Z,3.10
2019-02-27T08:13:43.979Z,3.50
2019-02-27T08:16:13.661Z,3.60
2019-02-27T08:18:44.471Z,3.90
2019-02-27T08:21:15.079Z,4.10
2019-02-27T08:23:44.686Z,4.30
2019-02-27T08:26:14.308Z,4.00
2019-02-27T08:28:43.893Z,4.00
2019-02-27T08:31:13.540Z,4.10
2019-02-27T08:33:43.521Z,4.30
2019-02-27T08:36:14.300Z,4.70
2019-02-27T08:38:44.035Z,5.10
2019-02-27T08:41:13.833Z,5.30
2019-02-27T08:43:43.531Z,5.20
2019-02-27T08:46:13.209Z,5.20
2019-02-27T08:48:42.868Z,5.30
2019-02-27T08:51:12.526Z,5.40
2019-02-27T08:53:42.375Z,5.40
2019-02-27T08:56:12.382Z,5.60
2019-02-27T08:58:42.715Z,5.70
2019-02-27T09:01:12.786Z,5.80
2019-02-27T09:03:42.566Z,5.90
2019-02-27T09:06:12.415Z,5.80
2019-02-27T09:08:44.016Z,6.10
2019-02-27T09:11:14.749Z,6.40
2019-02-27T09:13:44.576Z,6.50
2019-02-27T09:16:14.393Z,6.70
2019-02-27T09:18:44.313Z,6.60
2019-02-27T09:21:13.993Z,6.80
2019-02-27T09:23:43.688Z,6.90
2019-02-27T09:26:13.511Z,7.10
2019-02-27T09:28:44.532Z,7.30
2019-02-27T09:31:14.974Z,7.50
2019-02-27T09:33:44.747Z,7.80
2019-02-27T09:36:14.515Z,8.00
2019-02-27T09:38:45.213Z,8.00
2019-02-27T09:41:15.173Z,8.20
2019-02-27T09:43:44.901Z,8.40
2019-02-27T09:46:19.293Z,8.50
2019-02-27T09:48:47.054Z,8.50
2019-02-27T09:51:19.122Z,8.60
2019-02-27T09:53:48.140Z,8.80
2019-02-27T09:56:17.964Z,8.90
2019-02-27T09:58:47.698Z,9.00
2019-02-27T10:01:18.463Z,9.00
2019-02-27T10:03:48.300Z,9.00
2019-02-27T10:06:18.034Z,9.30
2019-02-27T10:08:47.694Z,9.60
2019-02-27T10:11:19.817Z,9.80
2019-02-27T10:13:48.686Z,10.00
2019-02-27T10:16:18.698Z,10.00
2019-02-27T10:18:48.347Z,10.20
2019-02-27T10:21:18.010Z,10.30
2019-02-27T10:23:47.647Z,10.30
2019-02-27T10:26:19.408Z,10.10
2019-02-27T10:28:48.643Z,10.20
2019-02-27T10:31:18.295Z,10.40
2019-02-27T10:33:47.933Z,10.20
2019-02-27T10:36:17.630Z,10.40
2019-02-27T10:38:47.348Z,10.70
2019-02-27T10:41:17.010Z,10.80
2019-02-27T10:43:46.720Z,11.00
2019-02-27T10:46:16.343Z,11.20
2019-02-27T10:48:46.913Z,11.20
2019-02-27T10:51:17.330Z,11.10
2019-02-27T10:53:47.139Z,11.20
2019-02-27T10:56:16.847Z,11.20
2019-02-27T10:58:47.654Z,11.40
2019-02-27T11:01:18.240Z,11.40
2019-02-27T11:03:47.961Z,11.40
2019-02-27T11:06:17.589Z,11.50
2019-02-27T11:08:47.332Z,11.70
2019-02-27T11:11:17.087Z,11.90
2019-02-27T11:13:48.461Z,11.80
2019-02-27T11:16:21.374Z,12.30
2019-02-27T11:18:51.065Z,12.60
2019-02-27T11:21:20.765Z,12.80
2019-02-27T11:23:51.455Z,12.90
2019-02-27T11:26:21.249Z,12.80
2019-02-27T11:28:51.075Z,12.90
2019-02-27T11:31:20.776Z,12.80
2019-02-27T11:33:50.470Z,12.70
2019-02-27T11:36:20.123Z,12.60
2019-02-27T11:38:49.829Z,12.60
2019-02-27T11:41:19.486Z,12.90
2019-02-27T11:43:49.184Z,13.50
2019-02-27T11:46:18.883Z,13.50
2019-02-27T11:48:48.604Z,13.50
2019-02-27T11:51:20.184Z,13.60
2019-02-27T11:53:49.846Z,13.40
2019-02-27T11:56:20.914Z,13.70
2019-02-27T11:58:50.942Z,13.60
2019-02-27T12:01:22.168Z,13.50
2019-02-27T12:03:52.175Z,13.70
2019-02-27T12:06:21.980Z,14.00
2019-02-27T12:08:51.744Z,14.20
2019-02-27T12:11:21.485Z,14.50
2019-02-27T12:13:51.130Z,14.10
2019-02-27T12:16:20.936Z,14.20
2019-02-27T12:18:50.703Z,14.00
2019-02-27T12:21:20.519Z,14.10
2019-02-27T12:23:50.273Z,15.10
2019-02-27T12:26:20.036Z,14.80
2019-02-27T12:28:52.512Z,15.20
2019-02-27T12:31:21.305Z,14.50
2019-02-27T12:33:51.107Z,15.30
2019-02-27T12:36:20.910Z,15.80
2019-02-27T12:38:50.656Z,15.70
2019-02-27T12:41:20.440Z,15.30
2019-02-27T12:43:52.744Z,15.10
2019-02-27T12:46:21.570Z,15.60
2019-02-27T12:48:51.289Z,15.30
2019-02-27T12:51:21.173Z,15.70
2019-02-27T12:53:54.318Z,15.50
2019-02-27T12:56:23.425Z,15.50
2019-02-27T12:58:53.228Z,15.60
2019-02-27T13:01:23.155Z,15.10
2019-02-27T13:03:52.879Z,15.20
2019-02-27T13:06:22.648Z,16.10
2019-02-27T13:08:52.881Z,16.60
2019-02-27T13:11:23.235Z,15.80
2019-02-27T13:13:52.936Z,16.60
2019-02-27T13:16:22.699Z,16.80
2019-02-27T13:18:52.489Z,16.50
2019-02-27T13:21:22.329Z,16.20
2019-02-27T13:23:52.102Z,16.60
2019-02-27T13:26:21.858Z,16.60
2019-02-27T13:28:51.663Z,17.00
2019-02-27T13:31:21.450Z,17.20
2019-02-27T13:33:51.193Z,16.90
2019-02-27T13:36:20.999Z,16.90
2019-02-27T13:38:52.211Z,16.30
2019-02-27T13:41:23.708Z,16.10
2019-02-27T13:43:53.314Z,15.80
2019-02-27T13:46:23.494Z,16.00
2019-02-27T13:48:53.400Z,15.80
2019-02-27T13:51:23.101Z,15.60
2019-02-27T13:53:52.956Z,15.60
2019-02-27T13:56:25.152Z,16.00
2019-02-27T13:58:53.958Z,16.20
2019-02-27T14:01:25.166Z,16.20
2019-02-27T14:03:55.083Z,16.40
2019-02-27T14:06:24.802Z,16.50
2019-02-27T14:08:54.451Z,16.70
2019-02-27T14:11:24.923Z,16.70
2019-02-27T14:13:55.557Z,16.60
2019-02-27T14:16:25.293Z,16.00
2019-02-27T14:18:55.011Z,16.00
2019-02-27T14:21:24.664Z,16.20
2019-02-27T14:23:54.322Z,16.50
2019-02-27T14:26:23.953Z,17.20
2019-02-27T14:28:55.153Z,17.10
2019-02-27T14:31:25.018Z,17.70
2019-02-27T14:33:55.022Z,17.20
2019-02-27T14:36:24.757Z,17.30
2019-02-27T14:38:56.611Z,17.10
2019-02-27T14:41:25.930Z,16.90
2019-02-27T14:43:57.604Z,17.20
2019-02-27T14:46:27.117Z,17.20
2019-02-27T14:48:56.783Z,16.90
2019-02-27T14:51:26.449Z,17.10
2019-02-27T14:53:56.115Z,17.10
2019-02-27T14:56:25.822Z,17.00
2019-02-27T14:58:56.518Z,17.30
2019-02-27T15:01:27.181Z,16.90
2019-02-27T15:03:56.943Z,17.10
2019-02-27T15:06:26.599Z,16.90
2019-02-27T15:08:58.123Z,16.80
2019-02-27T15:11:27.613Z,16.40
2019-02-27T15:13:59.605Z,16.70
2019-02-27T15:16:28.674Z,16.90
2019-02-27T15:18:58.323Z,16.90
2019-02-27T15:21:28.171Z,17.10
2019-02-27T15:24:01.357Z,16.70
2019-02-27T15:26:29.888Z,16.80
2019-02-27T15:28:59.539Z,17.10
2019-02-27T15:31:29.215Z,16.50
2019-02-27T15:33:58.891Z,16.30
2019-02-27T15:36:30.190Z,16.60
2019-02-27T15:39:00.206Z,16.80
2019-02-27T15:41:30.155Z,16.40
2019-02-27T15:44:00.511Z,16.60
2019-02-27T15:46:31.242Z,15.90
2019-02-27T15:49:01.194Z,15.70
2019-02-27T15:51:32.286Z,15.10
2019-02-27T15:54:02.327Z,15.20
2019-02-27T15:56:32.998Z,15.10
2019-02-27T15:59:06.228Z,14.80
2019-02-27T16:01:34.075Z,14.30
2019-02-27T16:04:03.857Z,14.20
2019-02-27T16:06:33.518Z,14.10
2019-02-27T16:09:03.399Z,14.10
2019-02-27T16:11:34.907Z,13.90
2019-02-27T16:14:09.143Z,13.70
2019-02-27T16:16:36.986Z,13.60
2019-02-27T16:19:08.053Z,13.20
2019-02-27T16:21:38.016Z,13.30
2019-02-27T16:24:10.268Z,13.20
2019-02-27T16:26:39.979Z,13.10
2019-02-27T16:29:09.667Z,12.90
2019-02-27T16:31:40.078Z,13.00
2019-02-27T16:34:11.379Z,12.80
2019-02-27T16:36:41.217Z,12.70
2019-02-27T16:39:11.378Z,12.60
2019-02-27T16:41:41.045Z,12.60
2019-02-27T16:44:11.222Z,12.30
2019-02-27T16:46:44.585Z,12.30
2019-02-27T16:49:12.684Z,12.20
2019-02-27T16:51:42.458Z,12.10
2019-02-27T16:54:12.259Z,12.00
2019-02-27T16:56:46.586Z,11.90
2019-02-27T16:59:13.219Z,11.80
2019-02-27T17:01:42.837Z,11.80
2019-02-27T17:04:12.643Z,11.60
2019-02-27T17:06:42.317Z,11.50
2019-02-27T17:09:13.298Z,11.30
2019-02-27T17:11:42.983Z,11.20
2019-02-27T17:14:12.695Z,11.00
2019-02-27T17:16:44.890Z,10.90
2019-02-27T17:19:14.793Z,10.90
2019-02-27T17:21:46.544Z,10.70
2019-02-27T17:24:20.953Z,10.70
2019-02-27T17:26:47.482Z,10.50
2019-02-27T17:29:17.155Z,10.40
2019-02-27T17:31:49.544Z,10.30
2019-02-27T17:34:18.188Z,10.30
2019-02-27T17:36:47.785Z,10.10
2019-02-27T17:39:17.423Z,10.00
2019-02-27T17:41:47.061Z,10.00
2019-02-27T17:44:16.734Z,10.10
2019-02-27T17:46:46.369Z,10.10
2019-02-27T17:49:16.109Z,10.00
2019-02-27T17:51:45.992Z,9.80
2019-02-27T17:54:15.779Z,9.50
2019-02-27T17:56:47.146Z,9.40
2019-02-27T17:59:16.832Z,9.30
2019-02-27T18:01:47.554Z,9.10
2019-02-27T18:04:17.254Z,9.00
2019-02-27T18:06:46.863Z,8.90
2019-02-27T18:09:16.546Z,8.70
2019-02-27T18:11:46.131Z,8.60
2019-02-27T18:14:15.779Z,8.60
2019-02-27T18:16:45.380Z,8.50
2019-02-27T18:19:16.653Z,8.50
2019-02-27T18:21:46.370Z,8.50
2019-02-27T18:24:16.006Z,8.50
2019-02-27T18:26:50.066Z,8.50
2019-02-27T18:29:17.089Z,8.50
2019-02-27T18:31:46.714Z,8.40
2019-02-27T18:34:16.451Z,8.50
2019-02-27T18:36:47.023Z,8.40
2019-02-27T18:39:16.711Z,8.30
2019-02-27T18:41:46.466Z,8.30
2019-02-27T18:44:16.122Z,8.40
2019-02-27T18:46:45.763Z,8.40
2019-02-27T18:49:18.663Z,8.50
2019-02-27T18:51:46.987Z,8.30
2019-02-27T18:54:21.716Z,8.30
2019-02-27T18:56:51.770Z,8.20
2019-02-27T18:59:21.408Z,8.20
2019-02-27T19:01:51.122Z,8.00
2019-02-27T19:04:20.802Z,8.00
2019-02-27T19:06:50.413Z,7.90
2019-02-27T19:09:20.130Z,8.00
2019-02-27T19:11:50.861Z,7.90
2019-02-27T19:14:21.319Z,7.90
2019-02-27T19:16:52.139Z,7.70
2019-02-27T19:19:22.448Z,7.60
2019-02-27T19:21:52.272Z,7.70
2019-02-27T19:24:26.502Z,7.80
2019-02-27T19:26:53.339Z,7.70
2019-02-27T19:29:23.002Z,7.70
2019-02-27T19:31:52.854Z,7.70
2019-02-27T19:34:22.553Z,7.50
2019-02-27T19:36:52.216Z,7.60
2019-02-27T19:39:22.542Z,7.50
2019-02-27T19:45:22.683Z,7.40
2019-02-27T19:47:54.661Z,7.40
2019-02-27T19:50:23.824Z,7.30
2019-02-27T19:52:53.511Z,7.20
2019-02-27T19:55:29.007Z,7.00
2019-02-27T19:57:58.920Z,6.90
2019-02-27T20:03:39.798Z,7.00
2019-02-27T20:06:09.524Z,7.00
2019-02-27T20:08:44.357Z,7.00
2019-02-27T20:11:10.550Z,7.10
2019-02-27T20:13:40.245Z,6.80
2019-02-27T20:16:09.915Z,6.70
2019-02-27T20:18:40.532Z,6.80
2019-02-27T20:21:11.403Z,6.80
2019-02-27T20:23:41.191Z,6.90
2019-02-27T20:26:14.043Z,7.00
2019-02-27T20:28:42.168Z,7.20
2019-02-27T20:31:11.795Z,7.10
2019-02-27T20:33:41.732Z,7.10
2019-02-27T20:36:11.391Z,7.20
2019-02-27T20:38:42.034Z,7.10
2019-02-27T20:41:12.053Z,7.10
2019-02-27T20:43:41.673Z,7.20
2019-02-27T20:46:14.620Z,7.40
2019-02-27T20:48:42.659Z,7.50
2019-02-27T20:51:12.255Z,7.60
2019-02-27T20:53:41.904Z,7.70
2019-02-27T20:56:11.624Z,7.80
2019-02-27T20:58:41.397Z,7.80
2019-02-27T21:01:13.766Z,7.90
2019-02-27T21:03:42.454Z,7.80
2019-02-27T21:06:12.770Z,7.60
2019-02-27T21:08:43.374Z,7.40
2019-02-27T21:11:13.011Z,7.40
2019-02-27T21:13:42.749Z,7.30
2019-02-27T21:16:13.414Z,7.40
2019-02-27T21:18:43.158Z,7.30
2019-02-27T21:21:12.763Z,7.30
2019-02-27T21:23:42.358Z,7.30
2019-02-27T21:26:12.221Z,7.10
2019-02-27T21:28:42.782Z,7.00
2019-02-27T21:31:13.465Z,7.00
2019-02-27T21:33:45.646Z,6.90
2019-02-27T21:36:14.577Z,6.90
2019-02-27T21:38:44.214Z,6.90
2019-02-27T21:41:13.907Z,7.00
2019-02-27T21:43:43.543Z,7.10
2019-02-27T21:46:13.269Z,7.20
2019-02-27T21:48:42.882Z,7.20
2019-02-27T21:51:13.853Z,7.20
2019-02-27T21:53:43.935Z,7.10
2019-02-27T21:56:15.178Z,7.00
2019-02-27T21:58:44.969Z,6.90
2019-02-27T22:01:14.669Z,6.80
2019-02-27T22:03:44.399Z,6.90
2019-02-27T22:06:14.058Z,6.70
2019-02-27T22:08:43.794Z,6.20
2019-02-27T22:11:13.405Z,6.00
2019-02-27T22:13:45.405Z,5.80
2019-02-27T22:16:14.386Z,5.60
2019-02-27T22:18:46.809Z,5.40
2019-02-27T22:21:15.567Z,5.40
2019-02-27T22:23:46.009Z,5.40
2019-02-27T22:26:15.759Z,5.50
2019-02-27T22:28:45.370Z,5.40
2019-02-27T22:31:15.014Z,5.20
2019-02-27T22:33:44.770Z,5.20
2019-02-27T22:36:14.469Z,5.20
2019-02-27T22:38:44.110Z,5.20
2019-02-27T22:41:13.932Z,5.40
2019-02-27T22:43:43.740Z,5.60
2019-02-27T22:46:13.714Z,5.40
2019-02-27T22:48:44.774Z,5.40
2019-02-27T22:51:14.440Z,5.50
2019-02-27T22:53:44.049Z,5.60
2019-02-27T22:56:16.861Z,5.60
2019-02-27T22:58:45.059Z,5.80
2019-02-27T23:01:23.221Z,5.70
2019-02-27T23:03:58.720Z,5.90
2019-02-27T23:06:28.361Z,5.80
2019-02-27T23:08:58.135Z,5.80
2019-02-27T23:11:27.922Z,5.60
2019-02-27T23:13:57.649Z,5.60
2019-02-27T23:16:29.780Z,5.40
2019-02-27T23:18:58.674Z,5.70
2019-02-27T23:21:28.290Z,5.70
2019-02-27T23:23:58.004Z,5.70
2019-02-27T23:26:27.705Z,5.80
2019-02-27T23:28:57.372Z,6.20
2019-02-27T23:31:27.041Z,6.40
2019-02-27T23:33:57.730Z,6.30
2019-02-27T23:36:27.416Z,6.40
2019-02-27T23:38:57.064Z,6.30
2019-02-27T23:41:26.653Z,6.30
2019-02-27T23:43:56.349Z,6.00
2019-02-27T23:46:25.973Z,6.00
2019-02-27T23:48:55.655Z,5.50
2019-02-27T23:51:25.696Z,5.50
2019-02-27T23:53:55.420Z,5.60
2019-02-27T23:56:25.076Z,5.50
2019-02-27T23:58:54.694Z,5.60
